Content, Texas
Current Conditions -  °F | °C
As of 2:55 AM on Wednesday 26 Nov 2014 (Local Time) from KCOM Reporting Station
Clear Clear  
Wind Chill: 38°   Ceiling: Unl
Heat Index: 44°   Visibility: 10mi
Dew Point: 28°   Wind: 13mph
Humidity: 54%   Direction: 240°WSW
Pressure: 30.11"   Gusts: NA
Location:  32.0006°N, 99.5803°W
Report Text: KCOM 260855Z AUTO 24011KT 10SM CLR 07/M02 A3011 RMK AO2 60001 T00661022
Loading
Personal Weather Stations






























Interactive Weather Map New forecast layout! Learn more

10-Day Weather Forecast

Advertisements
Track Severe Weather on mobile